Time;durP1;ratioP1;P1;durP2;ratioP2;P2;SDS_P1;SDS_P2;PMS_P1;PMS_P2;Temp;Humidity;BMP_temperature;BMP_pressure;BME280_temperature;BME280_humidity;BME280_pressure;Samples;Min_cycle;Max_cycle;Signal;HPM_P1;HPM_P2
2021/12/11 00:01:56;;;;;;;6.53;6.23;;;6.40;80.10;;;;;;5019218;28;20053;-87
2021/12/11 00:04:32;;;;;;;6.60;6.30;;;6.50;80.20;;;;;;5036015;28;20385;-87
2021/12/11 00:07:02;;;;;;;6.80;6.40;;;6.40;80.10;;;;;;5051941;28;20916;-88
2021/12/11 00:09:31;;;;;;;6.23;5.93;;;6.50;80.20;;;;;;5034794;28;20041;-88
2021/12/11 00:12:07;;;;;;;7.00;6.60;;;6.50;80.20;;;;;;5034527;28;20037;-87
2021/12/11 00:14:37;;;;;;;11.73;6.50;;;6.50;80.20;;;;;;5051749;28;20021;-87
2021/12/11 00:17:03;;;;;;;6.27;5.97;;;6.40;80.10;;;;;;5050998;28;20494;-88
2021/12/11 00:19:32;;;;;;;6.60;6.30;;;6.50;80.20;;;;;;5035396;28;20037;-89
2021/12/11 00:22:10;;;;;;;6.50;6.20;;;6.40;80.10;;;;;;5051604;28;20025;-89
2021/12/11 00:24:37;;;;;;;6.67;6.30;;;6.40;80.20;;;;;;5051502;28;20478;-88
2021/12/11 00:27:12;;;;;;;6.70;6.40;;;6.50;80.10;;;;;;5051646;28;20481;-88
2021/12/11 00:29:38;;;;;;;6.43;6.13;;;6.50;80.20;;;;;;5051612;28;20029;-88
2021/12/11 00:32:23;;;;;;;6.40;6.10;;;6.50;80.20;;;;;;5050818;28;20048;-88
2021/12/11 00:34:49;;;;;;;7.40;7.00;;;6.50;80.20;;;;;;5053014;28;20032;-88
2021/12/11 00:37:17;;;;;;;6.70;6.40;;;6.50;80.20;;;;;;5051325;28;20033;-90
2021/12/11 00:39:59;;;;;;;6.43;6.13;;;6.50;80.20;;;;;;5051477;28;20397;-88
2021/12/11 00:42:33;;;;;;;6.50;6.20;;;6.50;80.20;;;;;;5050278;28;20040;-89
2021/12/11 00:45:10;;;;;;;7.33;6.93;;;6.50;80.20;;;;;;5035236;28;20036;-89
2021/12/11 00:47:36;;;;;;;6.33;6.03;;;6.50;80.20;;;;;;5050156;28;20064;-87
2021/12/11 00:50:08;;;;;;;6.13;5.83;;;6.50;80.20;;;;;;5034227;28;20052;-88
2021/12/11 00:52:48;;;;;;;7.27;6.87;;;6.50;80.30;;;;;;5050567;28;20044;-88
2021/12/11 00:55:21;;;;;;;6.40;6.10;;;6.50;80.30;;;;;;5051051;28;20037;-88
2021/12/11 00:57:47;;;;;;;6.73;6.33;;;6.50;80.20;;;;;;5033504;28;20033;-87
2021/12/11 01:00:19;;;;;;;8.07;7.23;;;6.50;80.20;;;;;;5016939;28;20040;-88
2021/12/11 01:02:46;;;;;;;7.03;6.73;;;6.40;80.90;;;;;;5051309;28;20374;-88
2021/12/11 01:05:12;;;;;;;7.10;6.70;;;6.40;80.20;;;;;;5050986;28;20033;-87
2021/12/11 01:07:38;;;;;;;6.90;6.60;;;6.40;80.30;;;;;;5034842;28;20037;-90
2021/12/11 01:10:12;;;;;;;6.97;6.67;;;6.40;80.40;;;;;;5050810;28;20029;-88
2021/12/11 01:12:46;;;;;;;6.40;6.10;;;6.40;80.40;;;;;;5049724;28;20023;-88
2021/12/11 01:15:20;;;;;;;6.30;6.00;;;6.30;80.40;;;;;;5018012;28;20047;-87
2021/12/11 01:18:03;;;;;;;6.40;6.10;;;6.40;80.50;;;;;;5033838;28;20396;-89
2021/12/11 01:20:45;;;;;;;6.30;6.00;;;6.30;80.40;;;;;;5035672;28;20033;-87
2021/12/11 01:23:27;;;;;;;6.67;6.37;;;6.30;80.40;;;;;;5035161;28;20474;-89
2021/12/11 01:25:53;;;;;;;6.50;6.20;;;6.30;80.40;;;;;;5047510;28;20040;-87
2021/12/11 01:28:19;;;;;;;6.70;6.40;;;6.30;80.50;;;;;;5033485;28;20064;-88
2021/12/11 01:30:46;;;;;;;6.70;6.33;;;6.30;80.50;;;;;;5033127;28;20029;-88
2021/12/11 01:33:12;;;;;;;6.77;6.47;;;6.20;80.40;;;;;;5033170;28;20073;-87
2021/12/11 01:35:38;;;;;;;6.80;6.50;;;6.20;80.50;;;;;;5050593;28;20032;-88
2021/12/11 01:38:11;;;;;;;6.50;6.20;;;6.20;80.50;;;;;;5050784;28;20036;-88
2021/12/11 01:40:38;;;;;;;6.60;6.30;;;6.20;81.30;;;;;;5048953;28;20029;-87
2021/12/11 01:43:05;;;;;;;6.50;6.20;;;6.20;80.60;;;;;;5030449;28;20041;-87
2021/12/11 01:45:31;;;;;;;7.60;7.00;;;6.20;80.60;;;;;;5049912;28;20036;-88
2021/12/11 01:47:57;;;;;;;7.10;6.70;;;6.20;80.60;;;;;;5032799;28;20295;-88
2021/12/11 01:50:32;;;;;;;6.80;6.50;;;6.20;80.60;;;;;;5049605;28;20036;-87
2021/12/11 01:53:27;;;;;;;7.50;7.10;;;6.10;80.60;;;;;;5044346;28;20033;-88
2021/12/11 01:55:57;;;;;;;6.90;6.60;;;6.10;80.70;;;;;;5029765;28;20052;-87
2021/12/11 01:58:27;;;;;;;8.43;7.85;;;6.10;80.70;;;;;;5049136;28;20033;-88
2021/12/11 02:00:57;;;;;;;6.60;6.30;;;6.10;80.80;;;;;;5032296;28;20108;-88
2021/12/11 02:03:27;;;;;;;6.82;6.53;;;6.00;80.80;;;;;;5033087;28;20036;-87
2021/12/11 02:05:53;;;;;;;6.80;6.50;;;6.00;80.80;;;;;;5050107;28;20029;-89
2021/12/11 02:08:22;;;;;;;7.13;6.73;;;6.00;80.80;;;;;;5050343;28;20043;-87
2021/12/11 02:11:00;;;;;;;7.07;6.67;;;6.00;80.80;;;;;;5050213;28;20025;-87
2021/12/11 02:13:39;;;;;;;6.40;6.10;;;6.00;80.80;;;;;;5054135;28;20040;-87
2021/12/11 02:16:06;;;;;;;6.57;6.27;;;6.00;80.80;;;;;;5053676;28;20025;-88
2021/12/11 02:18:36;;;;;;;6.20;5.90;;;6.00;80.80;;;;;;5036286;28;20055;-87
2021/12/11 02:21:08;;;;;;;6.33;6.03;;;6.00;80.80;;;;;;5053765;28;20025;-87
2021/12/11 02:23:34;;;;;;;6.77;6.40;;;6.00;80.80;;;;;;5054367;28;20393;-88
2021/12/11 02:26:10;;;;;;;6.93;6.63;;;5.90;80.80;;;;;;5054061;28;20493;-88
2021/12/11 02:28:48;;;;;;;6.70;6.30;;;5.90;80.80;;;;;;5037330;28;20045;-87
2021/12/11 02:31:14;;;;;;;6.40;6.10;;;5.90;80.90;;;;;;5036084;28;20393;-88
2021/12/11 02:34:11;;;;;;;6.60;6.30;;;5.90;80.90;;;;;;5053798;28;20029;-88
2021/12/11 02:36:49;;;;;;;6.00;5.70;;;5.90;80.90;;;;;;5051962;28;20413;-87
2021/12/11 02:39:23;;;;;;;6.10;5.80;;;5.90;80.80;;;;;;5044747;28;20033;-87
2021/12/11 02:41:58;;;;;;;7.27;6.93;;;5.90;80.80;;;;;;5053334;28;20036;-87
2021/12/11 02:44:33;;;;;;;6.37;6.07;;;5.90;81.50;;;;;;5053047;28;20028;-88
2021/12/11 02:47:06;;;;;;;6.27;5.97;;;5.90;80.90;;;;;;5033313;28;20481;-87
2021/12/11 02:49:35;;;;;;;6.43;6.13;;;5.80;80.80;;;;;;5036676;28;20057;-87
2021/12/11 02:52:23;;;;;;;6.13;5.83;;;5.90;80.80;;;;;;5032996;28;20406;-88
2021/12/11 02:55:06;;;;;;;7.00;6.60;;;5.80;80.80;;;;;;5053547;28;20486;-87
2021/12/11 02:57:50;;;;;;;6.03;5.73;;;5.80;80.80;;;;;;5052986;28;20039;-87
2021/12/11 03:00:18;;;;;;;6.20;5.90;;;5.80;81.60;;;;;;5052515;28;20367;-88
2021/12/11 03:02:50;;;;;;;5.90;5.60;;;5.80;80.80;;;;;;5033178;28;20405;-87
2021/12/11 03:05:21;;;;;;;6.40;6.10;;;5.80;80.90;;;;;;5039932;28;20033;-88
2021/12/11 03:07:52;;;;;;;5.82;5.53;;;5.80;80.90;;;;;;5038612;28;20402;-88
2021/12/11 03:10:20;;;;;;;5.93;5.63;;;5.70;80.90;;;;;;5034231;28;20044;-88
2021/12/11 03:12:47;;;;;;;6.30;6.00;;;5.70;80.90;;;;;;5044767;28;20486;-88
2021/12/11 03:15:13;;;;;;;6.30;6.00;;;5.70;81.00;;;;;;5021471;28;20049;-88
2021/12/11 03:17:39;;;;;;;6.70;6.40;;;5.60;80.90;;;;;;5031549;28;20363;-88
2021/12/11 03:20:07;;;;;;;6.67;6.37;;;5.60;80.90;;;;;;5033641;28;20036;-87
2021/12/11 03:22:34;;;;;;;6.30;6.00;;;5.60;81.00;;;;;;5033038;28;20033;-87
2021/12/11 03:25:03;;;;;;;6.20;5.90;;;5.60;81.10;;;;;;5051408;28;20454;-88
2021/12/11 03:27:29;;;;;;;6.77;6.47;;;5.60;81.20;;;;;;5031937;28;20473;-87
2021/12/11 03:29:55;;;;;;;6.47;6.17;;;5.50;81.00;;;;;;5034081;28;20133;-87
2021/12/11 03:32:22;;;;;;;6.50;6.20;;;5.50;81.90;;;;;;5016057;28;20033;-87
2021/12/11 03:34:48;;;;;;;6.30;6.00;;;5.50;81.20;;;;;;5034326;28;20049;-87
2021/12/11 03:37:16;;;;;;;6.20;5.90;;;5.50;81.20;;;;;;5022603;28;20500;-87
2021/12/11 03:39:44;;;;;;;6.23;5.93;;;5.50;81.20;;;;;;5035921;28;20017;-87
2021/12/11 03:42:17;;;;;;;6.10;5.80;;;5.50;81.20;;;;;;5052190;28;20037;-87
2021/12/11 03:44:43;;;;;;;6.27;5.97;;;5.50;81.10;;;;;;5052677;28;20021;-87
2021/12/11 03:47:16;;;;;;;6.23;5.93;;;5.50;81.10;;;;;;5035104;28;20064;-87
2021/12/11 03:49:42;;;;;;;6.00;5.70;;;5.50;81.20;;;;;;5051540;28;20398;-87
2021/12/11 03:52:09;;;;;;;6.40;6.10;;;5.50;81.10;;;;;;5052507;28;20386;-86
2021/12/11 03:54:37;;;;;;;6.30;6.00;;;5.50;81.20;;;;;;5034758;28;20044;-87
2021/12/11 03:57:04;;;;;;;6.33;6.03;;;5.50;81.10;;;;;;5052109;28;20032;-86
2021/12/11 03:59:31;;;;;;;6.40;6.10;;;5.50;81.10;;;;;;5052471;28;20383;-86
2021/12/11 04:02:01;;;;;;;6.10;5.80;;;5.50;81.10;;;;;;5034963;28;20410;-87
2021/12/11 04:04:38;;;;;;;6.22;5.93;;;5.50;81.20;;;;;;5053671;28;20040;-86
2021/12/11 04:07:05;;;;;;;6.03;5.73;;;5.40;81.10;;;;;;5053379;28;20040;-86
2021/12/11 04:09:32;;;;;;;5.90;5.60;;;5.40;81.00;;;;;;5034446;28;20041;-87
2021/12/11 04:11:58;;;;;;;8.93;6.47;;;5.40;81.80;;;;;;5049937;28;20029;-87
2021/12/11 04:14:30;;;;;;;6.20;5.90;;;5.40;81.10;;;;;;5052122;28;20025;-88
2021/12/11 04:16:56;;;;;;;6.37;6.07;;;5.40;81.10;;;;;;5047741;28;20035;-86
2021/12/11 04:19:23;;;;;;;7.13;6.63;;;5.40;81.20;;;;;;5051719;28;20033;-87
2021/12/11 04:21:49;;;;;;;6.73;6.43;;;5.40;81.10;;;;;;5051827;28;20017;-88
2021/12/11 04:24:18;;;;;;;6.13;5.83;;;5.40;81.10;;;;;;5051487;28;20036;-87
2021/12/11 04:26:45;;;;;;;6.63;6.33;;;5.40;81.10;;;;;;5034666;28;20044;-86
2021/12/11 04:29:11;;;;;;;6.50;6.20;;;5.40;81.20;;;;;;5051506;28;20457;-86
2021/12/11 04:31:42;;;;;;;7.17;6.77;;;5.40;81.10;;;;;;5034434;28;20037;-87
2021/12/11 04:34:08;;;;;;;6.65;6.35;;;5.40;81.10;;;;;;5051237;28;20055;-87
2021/12/11 04:36:40;;;;;;;6.67;6.37;;;5.40;81.10;;;;;;5051651;28;20028;-87
2021/12/11 04:39:08;;;;;;;6.67;6.37;;;5.40;81.10;;;;;;5034087;28;20040;-87
2021/12/11 04:41:41;;;;;;;7.17;6.77;;;5.40;81.10;;;;;;5051872;28;20025;-86
2021/12/11 04:44:10;;;;;;;6.60;6.30;;;5.40;81.10;;;;;;5051299;28;20037;-86
2021/12/11 04:46:36;;;;;;;7.07;6.77;;;5.40;81.10;;;;;;5050884;28;20032;-87
2021/12/11 04:49:13;;;;;;;6.70;6.40;;;5.40;81.10;;;;;;5051098;28;20045;-87
2021/12/11 05:00:19;;;;;;;12.30;6.63;;;5.50;81.10;;;;;;5054590;28;20026;-87
2021/12/11 05:07:25;;;;;;;6.17;5.87;;;5.50;81.00;;;;;;5051443;28;20021;-87
2021/12/11 05:10:10;;;;;;;6.60;6.20;;;5.60;81.00;;;;;;5051076;28;20043;-87
2021/12/11 05:12:36;;;;;;;6.17;5.87;;;5.60;81.70;;;;;;5034644;28;20037;-87
2021/12/11 05:15:12;;;;;;;6.20;5.90;;;5.60;80.90;;;;;;5032800;28;20409;-86
2021/12/11 05:17:38;;;;;;;6.03;5.73;;;5.60;80.90;;;;;;5032324;28;20033;-87
2021/12/11 05:20:05;;;;;;;6.73;6.43;;;5.60;80.90;;;;;;5049924;28;20043;-85
2021/12/11 05:22:31;;;;;;;6.33;6.03;;;5.70;80.90;;;;;;5024431;28;20047;-86
2021/12/11 05:24:57;;;;;;;7.70;6.13;;;5.70;80.90;;;;;;5031126;28;20045;-86
2021/12/11 05:27:24;;;;;;;6.17;5.87;;;5.70;81.00;;;;;;5042624;28;20033;-88
2021/12/11 05:29:50;;;;;;;6.27;5.97;;;5.70;81.00;;;;;;5033205;28;20478;-86
2021/12/11 05:32:18;;;;;;;6.60;6.30;;;5.70;80.90;;;;;;5049990;28;20049;-88
2021/12/11 05:34:44;;;;;;;10.13;7.00;;;5.70;81.00;;;;;;5051158;28;20028;-90
2021/12/11 05:37:11;;;;;;;6.53;6.23;;;5.80;81.00;;;;;;5033106;28;20033;-88
2021/12/11 05:39:37;;;;;;;6.33;6.03;;;5.70;80.90;;;;;;5030366;28;20044;-89
2021/12/11 05:42:04;;;;;;;5.80;5.50;;;5.80;81.10;;;;;;5033225;28;20435;-89
2021/12/11 05:44:30;;;;;;;6.83;6.23;;;5.80;81.00;;;;;;5033451;28;20040;-88
2021/12/11 05:46:56;;;;;;;5.93;5.63;;;5.80;81.80;;;;;;5031755;28;20506;-88
2021/12/11 05:49:23;;;;;;;6.57;6.27;;;5.80;81.70;;;;;;5048428;28;20081;-88
2021/12/11 05:51:50;;;;;;;5.83;5.53;;;5.80;80.90;;;;;;5049751;28;20028;-90
2021/12/11 05:54:21;;;;;;;5.87;5.57;;;5.90;81.00;;;;;;5050309;28;20036;-89
2021/12/11 05:56:47;;;;;;;6.17;5.87;;;5.80;80.90;;;;;;5022314;28;20045;-89
2021/12/11 05:59:16;;;;;;;6.07;5.77;;;5.90;81.00;;;;;;5049669;28;20111;-86
2021/12/11 06:01:43;;;;;;;6.23;5.93;;;5.90;80.90;;;;;;5050007;28;20382;-87
2021/12/11 06:04:14;;;;;;;6.90;6.53;;;5.90;81.00;;;;;;5049522;28;20037;-87
2021/12/11 06:06:41;;;;;;;6.35;6.05;;;5.90;80.90;;;;;;5033855;28;20036;-87
2021/12/11 06:09:09;;;;;;;6.10;5.77;;;6.00;81.00;;;;;;5033186;28;20389;-88
2021/12/11 06:11:35;;;;;;;6.00;5.70;;;6.00;80.90;;;;;;5050235;28;20381;-87
2021/12/11 06:14:02;;;;;;;6.00;5.70;;;6.00;80.90;;;;;;5050266;28;20029;-87
2021/12/11 06:16:28;;;;;;;6.40;6.00;;;6.00;80.90;;;;;;5049152;28;20036;-87
2021/12/11 06:18:54;;;;;;;5.87;5.57;;;5.90;80.90;;;;;;5049658;28;20034;-86
2021/12/11 06:21:20;;;;;;;6.33;6.03;;;6.00;81.00;;;;;;5032668;28;20037;-87
2021/12/11 06:23:46;;;;;;;5.97;5.67;;;6.00;81.00;;;;;;5050439;28;20033;-87
2021/12/11 06:26:12;;;;;;;6.20;5.90;;;6.00;81.00;;;;;;5050277;28;20056;-87
2021/12/11 06:28:39;;;;;;;5.93;5.63;;;6.00;81.00;;;;;;5050018;28;20044;-88
2021/12/11 06:31:05;;;;;;;6.30;6.00;;;6.00;80.90;;;;;;5049353;28;20415;-87
2021/12/11 06:33:32;;;;;;;6.37;6.07;;;6.00;80.90;;;;;;5049628;28;20398;-87
2021/12/11 06:36:01;;;;;;;6.40;6.10;;;6.00;80.90;;;;;;5049757;28;20029;-88
2021/12/11 06:38:29;;;;;;;8.17;6.53;;;6.00;81.00;;;;;;5033311;28;20041;-87
2021/12/11 06:40:55;;;;;;;6.47;6.17;;;6.00;81.00;;;;;;5030110;28;20493;-88
2021/12/11 06:43:22;;;;;;;7.10;6.60;;;6.00;81.10;;;;;;5032141;28;20294;-87
2021/12/11 06:45:48;;;;;;;7.27;6.17;;;6.00;81.10;;;;;;5032104;28;20478;-88
2021/12/11 06:48:15;;;;;;;7.10;6.70;;;6.00;81.10;;;;;;5049411;28;20048;-87
2021/12/11 06:50:42;;;;;;;7.60;7.20;;;6.00;81.10;;;;;;5049587;28;20037;-87
2021/12/11 06:53:26;;;;;;;6.77;6.40;;;6.00;81.10;;;;;;5033127;28;20045;-87
2021/12/11 06:55:52;;;;;;;6.97;6.67;;;6.00;81.10;;;;;;5050403;28;20033;-87
2021/12/11 06:58:19;;;;;;;7.17;6.87;;;6.00;81.10;;;;;;5033778;28;20040;-86
2021/12/11 07:00:45;;;;;;;7.30;6.90;;;6.10;81.10;;;;;;5053558;28;20056;-87
2021/12/11 07:03:11;;;;;;;6.70;6.40;;;6.10;81.10;;;;;;5053526;28;20029;-87
2021/12/11 07:05:37;;;;;;;6.90;6.50;;;6.10;81.10;;;;;;5036394;28;20037;-87
2021/12/11 07:08:07;;;;;;;6.43;6.13;;;6.10;81.20;;;;;;5053340;28;20052;-88
2021/12/11 07:10:33;;;;;;;6.50;6.20;;;6.10;81.20;;;;;;5053822;28;20409;-83
2021/12/11 07:12:59;;;;;;;6.80;6.50;;;6.10;81.20;;;;;;5053000;28;20021;-87
2021/12/11 07:15:26;;;;;;;6.83;6.53;;;6.10;81.20;;;;;;5052302;28;20029;-86
2021/12/11 07:17:52;;;;;;;6.87;6.57;;;6.20;81.10;;;;;;5035253;28;20044;-89
2021/12/11 07:20:18;;;;;;;6.93;6.63;;;6.20;81.10;;;;;;5053424;28;20037;-85
2021/12/11 07:22:44;;;;;;;6.73;6.43;;;6.20;81.10;;;;;;5036649;28;20033;-86
2021/12/11 07:25:16;;;;;;;7.13;6.80;;;6.20;81.10;;;;;;5035698;28;20032;-86
2021/12/11 07:27:42;;;;;;;6.87;6.47;;;6.20;81.10;;;;;;5054054;28;20028;-84
2021/12/11 07:30:09;;;;;;;6.60;6.30;;;6.20;81.10;;;;;;5051835;28;20040;-83
2021/12/11 07:32:35;;;;;;;6.73;6.43;;;6.20;81.30;;;;;;5052706;28;20024;-83
2021/12/11 07:35:01;;;;;;;6.83;6.53;;;6.20;81.30;;;;;;5035862;28;20037;-82
2021/12/11 07:37:28;;;;;;;7.67;7.23;;;6.20;81.20;;;;;;5051452;28;20037;-83
2021/12/11 07:39:54;;;;;;;6.87;6.40;;;6.30;81.10;;;;;;5049294;28;20044;-83
2021/12/11 07:42:20;;;;;;;7.17;6.77;;;6.30;81.10;;;;;;5049954;28;20039;-83
2021/12/11 07:44:46;;;;;;;6.87;6.57;;;6.30;81.20;;;;;;5052082;28;20029;-83
2021/12/11 07:47:12;;;;;;;6.73;6.43;;;6.30;81.20;;;;;;5051025;28;20048;-82
2021/12/11 07:49:38;;;;;;;6.27;5.97;;;6.30;81.10;;;;;;5049756;28;20037;-84
2021/12/11 07:52:05;;;;;;;7.23;6.80;;;6.30;81.20;;;;;;5035290;28;20393;-85
2021/12/11 07:54:31;;;;;;;7.17;6.77;;;6.30;81.10;;;;;;5050564;28;20044;-83
2021/12/11 07:56:58;;;;;;;6.93;6.63;;;6.30;81.20;;;;;;5052587;28;20409;-84
2021/12/11 07:59:24;;;;;;;6.97;6.67;;;6.40;81.20;;;;;;5050072;28;20037;-84
2021/12/11 08:01:51;;;;;;;7.30;6.70;;;6.40;81.20;;;;;;5052041;28;20029;-85
2021/12/11 08:04:18;;;;;;;6.60;6.30;;;6.40;81.20;;;;;;5050268;28;20029;-85
2021/12/11 08:06:44;;;;;;;6.60;6.30;;;6.40;81.20;;;;;;5047944;28;20051;-88
2021/12/11 08:09:13;;;;;;;15.60;6.67;;;6.40;81.20;;;;;;5047309;28;20397;-86
2021/12/11 08:11:40;;;;;;;7.10;6.70;;;6.40;81.20;;;;;;5050538;28;20386;-85
2021/12/11 08:14:06;;;;;;;6.33;6.03;;;6.40;81.20;;;;;;5050714;28;20394;-86
2021/12/11 08:16:36;;;;;;;6.20;5.90;;;6.40;81.20;;;;;;5015753;28;20045;-82
2021/12/11 08:19:03;;;;;;;6.73;6.33;;;6.50;81.20;;;;;;5044899;28;20389;-84
2021/12/11 08:21:29;;;;;;;6.27;5.97;;;6.50;81.20;;;;;;5049121;28;20029;-83
2021/12/11 08:23:56;;;;;;;5.93;5.63;;;6.50;81.10;;;;;;5050022;28;20040;-85
2021/12/11 08:26:26;;;;;;;5.80;5.50;;;6.60;81.20;;;;;;5032061;28;20052;-85
2021/12/11 08:28:52;;;;;;;6.07;5.77;;;6.60;81.10;;;;;;5052275;28;20044;-81
2021/12/11 08:31:19;;;;;;;6.53;6.23;;;6.60;81.10;;;;;;5043769;28;20041;-86
2021/12/11 08:33:46;;;;;;;6.27;5.97;;;6.70;81.20;;;;;;5032081;28;20033;-81
2021/12/11 08:36:12;;;;;;;5.67;5.40;;;6.70;81.10;;;;;;5049666;28;20033;-79
2021/12/11 08:38:39;;;;;;;23.37;6.50;;;6.70;81.00;;;;;;5047597;28;20021;-80
2021/12/11 08:41:06;;;;;;;6.37;6.07;;;6.80;81.00;;;;;;5049531;28;20044;-82
2021/12/11 08:43:32;;;;;;;6.50;6.07;;;6.80;81.00;;;;;;5032871;28;20029;-82
2021/12/11 08:48:39;;;;;;;6.07;5.77;;;6.90;81.00;;;;;;5050880;28;20052;-81
2021/12/11 08:51:10;;;;;;;5.90;5.60;;;6.90;81.00;;;;;;5049399;28;20049;-83
2021/12/11 08:53:37;;;;;;;5.97;5.67;;;6.90;81.00;;;;;;5048704;28;20025;-83
2021/12/11 08:56:04;;;;;;;6.40;6.10;;;7.00;81.00;;;;;;5050561;28;20046;-84
2021/12/11 08:58:30;;;;;;;7.07;6.60;;;7.00;81.00;;;;;;5050942;28;20033;-85
2021/12/11 09:01:12;;;;;;;10.80;6.43;;;7.00;81.00;;;;;;5050296;28;20406;-83
2021/12/11 09:03:45;;;;;;;6.00;5.70;;;7.00;81.00;;;;;;5051689;28;20048;-81
2021/12/11 09:06:31;;;;;;;6.67;6.30;;;7.10;81.00;;;;;;5048576;28;20029;-83
2021/12/11 09:09:15;;;;;;;5.97;5.67;;;7.10;80.90;;;;;;5049362;28;20041;-86
2021/12/11 09:11:53;;;;;;;6.00;5.70;;;7.20;81.00;;;;;;5051237;28;20410;-80
2021/12/11 09:14:32;;;;;;;6.13;5.83;;;7.20;81.00;;;;;;5049142;28;20036;-82
2021/12/11 09:17:15;;;;;;;6.07;5.77;;;7.20;80.90;;;;;;5047622;28;20029;-81
2021/12/11 09:19:54;;;;;;;6.50;6.10;;;7.30;81.00;;;;;;5032852;28;20055;-83
2021/12/11 09:22:46;;;;;;;6.20;5.90;;;7.30;80.90;;;;;;5047565;28;20021;-83
2021/12/11 09:25:23;;;;;;;6.00;5.70;;;7.40;80.90;;;;;;5046820;28;20041;-81
2021/12/11 09:27:54;;;;;;;6.40;6.10;;;7.40;80.90;;;;;;5047281;28;20056;-82
2021/12/11 09:30:23;;;;;;;6.78;6.47;;;7.40;80.90;;;;;;5048312;28;20386;-82
2021/12/11 09:33:04;;;;;;;6.23;5.93;;;7.50;81.70;;;;;;5050202;28;20025;-82
2021/12/11 09:35:40;;;;;;;6.63;6.32;;;7.50;80.90;;;;;;5016421;28;20245;-82
2021/12/11 09:38:12;;;;;;;6.07;5.77;;;7.50;80.80;;;;;;5050011;28;20397;-82
2021/12/11 09:40:38;;;;;;;;;;;7.60;80.90;;;;;;5049715;28;20036;-82
2021/12/11 09:43:03;;;;;;;6.47;6.17;;;7.70;80.90;;;;;;5049876;28;19940;-82
2021/12/11 09:45:36;;;;;;;6.37;6.07;;;7.70;80.70;;;;;;5052532;28;20029;-83
2021/12/11 09:48:07;;;;;;;6.53;6.23;;;7.70;80.70;;;;;;5050220;28;20037;-82
2021/12/11 09:50:44;;;;;;;6.93;6.20;;;7.70;80.60;;;;;;5033202;28;20049;-83
2021/12/11 09:53:11;;;;;;;6.57;6.27;;;7.80;80.70;;;;;;5050703;28;20513;-83
2021/12/11 09:55:39;;;;;;;6.30;6.00;;;7.80;80.60;;;;;;5048778;28;20048;-82
2021/12/11 09:58:08;;;;;;;7.80;6.90;;;7.80;80.60;;;;;;5050135;28;20351;-82
2021/12/11 10:00:56;;;;;;;6.22;5.93;;;7.80;80.60;;;;;;5048761;28;20037;-84
2021/12/11 10:03:24;;;;;;;6.55;6.25;;;7.80;80.80;;;;;;5050100;28;20021;-82
2021/12/11 10:05:56;;;;;;;6.18;5.78;;;7.80;80.70;;;;;;5024664;28;20049;-85
2021/12/11 10:08:35;;;;;;;6.53;5.77;;;7.90;80.90;;;;;;5031498;28;20393;-85
2021/12/11 10:11:01;;;;;;;5.82;5.53;;;7.80;80.80;;;;;;5046557;28;20040;-85
2021/12/11 10:13:28;;;;;;;10.17;6.83;;;7.90;80.90;;;;;;5050196;28;20397;-82
2021/12/11 10:15:55;;;;;;;6.87;6.53;;;8.00;80.90;;;;;;5050240;28;20041;-82
2021/12/11 10:18:22;;;;;;;6.07;5.78;;;8.00;80.80;;;;;;5050332;28;20029;-85
2021/12/11 10:21:01;;;;;;;6.78;6.47;;;8.00;80.80;;;;;;5049103;28;20406;-83
2021/12/11 10:23:30;;;;;;;6.53;6.22;;;8.10;80.80;;;;;;5048438;28;20029;-81
2021/12/11 10:25:57;;;;;;;7.35;6.90;;;8.10;80.70;;;;;;5047481;28;20390;-86
2021/12/11 10:28:24;;;;;;;6.87;6.47;;;8.20;80.70;;;;;;5049439;28;20029;-84
2021/12/11 10:30:54;;;;;;;6.50;6.20;;;8.30;80.70;;;;;;5049222;28;20053;-79
2021/12/11 10:33:21;;;;;;;6.43;6.13;;;8.30;80.70;;;;;;5052350;28;20047;-81
2021/12/11 10:35:50;;;;;;;5.95;5.65;;;8.30;80.60;;;;;;5038116;28;20375;-83
2021/12/11 10:38:16;;;;;;;6.00;5.70;;;8.40;80.70;;;;;;5053892;28;20033;-84
2021/12/11 10:40:54;;;;;;;6.25;5.95;;;8.40;80.60;;;;;;5053860;28;20386;-87
2021/12/11 10:43:23;;;;;;;6.28;5.88;;;8.50;80.60;;;;;;5033282;28;20044;-85
2021/12/11 10:45:50;;;;;;;6.40;6.00;;;8.60;80.60;;;;;;5036325;28;20473;-83
2021/12/11 10:48:19;;;;;;;6.77;6.37;;;8.60;80.60;;;;;;5053722;28;20053;-84
2021/12/11 10:51:09;;;;;;;6.73;6.33;;;8.60;80.50;;;;;;5052564;28;20039;-84
2021/12/11 10:53:36;;;;;;;6.47;6.18;;;8.70;80.50;;;;;;5027065;28;20025;-82
2021/12/11 10:56:04;;;;;;;20.25;8.15;;;8.70;80.40;;;;;;5054572;28;20032;-82
2021/12/11 10:58:57;;;;;;;7.47;7.07;;;8.80;80.40;;;;;;5054089;28;20028;-82
2021/12/11 11:01:33;;;;;;;6.93;6.63;;;8.80;80.40;;;;;;5035295;28;20048;-79
2021/12/11 11:04:10;;;;;;;6.85;6.55;;;8.80;80.40;;;;;;5052922;28;20036;-80
2021/12/11 11:06:36;;;;;;;6.95;6.65;;;8.90;80.40;;;;;;5053883;28;20048;-88
2021/12/11 11:09:04;;;;;;;7.63;7.13;;;8.90;80.40;;;;;;5035917;28;20037;-82
2021/12/11 11:11:30;;;;;;;7.25;6.95;;;9.00;80.40;;;;;;5054015;28;20033;-80
2021/12/11 11:13:56;;;;;;;7.57;7.18;;;9.00;80.30;;;;;;5054248;28;20032;-79
2021/12/11 11:16:23;;;;;;;9.30;8.70;;;9.00;80.30;;;;;;5052651;28;20394;-85
2021/12/11 11:18:49;;;;;;;6.80;6.47;;;9.10;80.40;;;;;;5052676;28;20025;-82
2021/12/11 11:21:37;;;;;;;7.72;7.13;;;9.10;80.40;;;;;;5033761;28;20458;-83
2021/12/11 11:24:04;;;;;;;7.18;6.88;;;9.10;80.30;;;;;;5053179;28;20211;-85
2021/12/11 11:26:34;;;;;;;7.07;6.70;;;9.20;80.30;;;;;;5052879;28;20029;-91
2021/12/11 11:29:01;;;;;;;7.70;7.30;;;9.20;80.30;;;;;;5053801;28;20033;-88
2021/12/11 11:31:34;;;;;;;7.78;7.38;;;9.20;80.30;;;;;;5035744;28;20045;-90
2021/12/11 11:34:01;;;;;;;7.25;6.95;;;9.20;80.30;;;;;;5052340;28;20056;-88
2021/12/11 11:36:28;;;;;;;8.50;8.00;;;9.30;80.40;;;;;;5053497;28;20425;-91
2021/12/11 11:38:58;;;;;;;7.43;7.13;;;9.30;80.40;;;;;;5035228;28;20430;-85
2021/12/11 11:41:27;;;;;;;8.45;7.85;;;9.30;80.40;;;;;;5053345;28;20030;-89
2021/12/11 11:43:54;;;;;;;8.00;7.60;;;9.30;80.30;;;;;;5052350;28;20037;-89
2021/12/11 11:46:22;;;;;;;8.05;7.65;;;9.30;80.30;;;;;;5051196;28;20037;-86
2021/12/11 11:48:49;;;;;;;8.38;7.75;;;9.30;80.30;;;;;;5052634;28;20037;-94
2021/12/11 11:51:24;;;;;;;9.65;9.07;;;9.30;80.30;;;;;;5035515;28;20049;-90
2021/12/11 11:53:51;;;;;;;8.70;8.30;;;9.30;80.40;;;;;;5052419;28;20021;-86
2021/12/11 11:56:18;;;;;;;9.52;9.02;;;9.30;80.40;;;;;;5034456;28;20045;-90
2021/12/11 11:58:45;;;;;;;8.77;8.38;;;9.30;80.40;;;;;;5051498;28;20020;-91
2021/12/11 12:01:18;;;;;;;9.10;8.60;;;9.30;80.40;;;;;;5049848;28;20044;-90
2021/12/11 12:03:45;;;;;;;8.38;7.97;;;9.30;80.50;;;;;;5051890;28;20021;-85
2021/12/11 12:06:22;;;;;;;8.20;7.80;;;9.40;80.50;;;;;;5051253;28;20041;-84
2021/12/11 12:08:48;;;;;;;8.70;8.20;;;9.40;80.50;;;;;;5040496;28;20041;-87
2021/12/11 12:11:15;;;;;;;9.02;8.50;;;9.40;80.40;;;;;;5034101;28;20048;-87
2021/12/11 12:13:41;;;;;;;7.72;7.32;;;9.40;80.40;;;;;;5052035;28;20500;-88
2021/12/11 12:16:10;;;;;;;7.43;7.13;;;9.50;80.50;;;;;;5051069;28;20036;-84
2021/12/11 12:18:36;;;;;;;8.15;7.43;;;9.50;80.40;;;;;;5051870;28;20390;-81
2021/12/11 12:21:04;;;;;;;7.10;6.72;;;9.50;80.30;;;;;;5050689;28;20036;-83
2021/12/11 12:23:31;;;;;;;7.03;6.72;;;9.60;80.30;;;;;;5050994;28;20334;-82
2021/12/11 12:26:06;;;;;;;7.15;6.85;;;9.70;80.30;;;;;;5034723;28;20037;-79
2021/12/11 12:28:33;;;;;;;7.60;7.28;;;9.70;81.00;;;;;;5034433;28;20032;-81
2021/12/11 12:31:09;;;;;;;7.97;7.57;;;9.80;80.20;;;;;;5032702;28;20055;-83
2021/12/11 12:33:35;;;;;;;7.43;7.13;;;9.80;80.10;;;;;;5051099;28;20029;-91
2021/12/11 12:36:01;;;;;;;8.02;7.63;;;9.90;80.10;;;;;;5049197;28;20040;-85
2021/12/11 12:38:29;;;;;;;8.57;8.18;;;9.90;80.00;;;;;;5051333;28;20020;-84
2021/12/11 12:41:11;;;;;;;8.18;7.78;;;10.00;80.00;;;;;;5030256;28;20490;-83
2021/12/11 12:44:16;;;;;;;8.43;8.02;;;10.00;80.00;;;;;;5053018;28;20048;-85
2021/12/11 12:46:55;;;;;;;8.73;8.32;;;10.00;80.00;;;;;;5051828;28;20041;-83
2021/12/11 12:49:23;;;;;;;8.63;8.10;;;10.00;79.90;;;;;;5033636;28;20084;-83
2021/12/11 12:51:49;;;;;;;8.98;8.57;;;10.10;79.90;;;;;;5045759;28;20037;-84
2021/12/11 12:54:16;;;;;;;8.70;8.30;;;10.10;79.90;;;;;;5050565;28;20064;-84
2021/12/11 12:56:46;;;;;;;9.32;8.85;;;10.20;79.90;;;;;;5054643;28;20031;-82
2021/12/11 12:59:19;;;;;;;10.50;9.90;;;10.20;79.90;;;;;;5067025;28;20025;-81
2021/12/11 13:01:51;;;;;;;10.52;10.02;;;10.20;79.90;;;;;;5061110;28;20111;-80
2021/12/11 13:04:19;;;;;;;9.13;8.73;;;10.20;79.90;;;;;;5066544;28;20036;-81
2021/12/11 13:06:54;;;;;;;9.60;9.10;;;10.30;80.00;;;;;;5033610;28;20040;-79
2021/12/11 13:09:26;;;;;;;9.20;8.80;;;10.30;80.00;;;;;;5051323;28;20033;-80
2021/12/11 13:12:14;;;;;;;9.25;8.85;;;10.30;79.90;;;;;;5046826;28;20477;-81
2021/12/11 13:14:40;;;;;;;9.43;8.98;;;10.30;79.80;;;;;;5050654;28;20021;-82
2021/12/11 13:17:19;;;;;;;8.32;7.93;;;10.40;79.90;;;;;;5054748;28;20351;-81
2021/12/11 13:19:48;;;;;;;8.35;7.95;;;10.40;79.90;;;;;;5075434;28;20001;-82
2021/12/11 13:22:23;;;;;;;9.02;8.63;;;10.40;79.80;;;;;;5072893;28;20243;-81
2021/12/11 13:24:52;;;;;;;7.55;7.15;;;10.50;79.90;;;;;;5051360;28;20029;-81
2021/12/11 13:27:21;;;;;;;7.07;6.70;;;10.50;79.80;;;;;;5033611;28;20047;-82